sensor_id;sensor_type;location;lat;lon;timestamp;pressure;altitude;pressure_sealevel;temperature;humidity
13314;BME280;6725;48.112;11.604;2023-05-31T00:01:50;95600.78;;;15.09;100.00
13314;BME280;6725;48.112;11.604;2023-05-31T00:04:16;95600.69;;;15.13;100.00
13314;BME280;6725;48.112;11.604;2023-05-31T00:06:41;95611.16;;;15.02;100.00
13314;BME280;6725;48.112;11.604;2023-05-31T00:09:06;95612.28;;;15.04;100.00
13314;BME280;6725;48.112;11.604;2023-05-31T00:11:32;95604.19;;;14.97;100.00
13314;BME280;6725;48.112;11.604;2023-05-31T00:13:57;95602.22;;;14.98;100.00
13314;BME280;6725;48.112;11.604;2023-05-31T00:16:22;95596.50;;;14.89;100.00
13314;BME280;6725;48.112;11.604;2023-05-31T00:18:48;95604.31;;;14.90;100.00
13314;BME280;6725;48.112;11.604;2023-05-31T00:21:13;95609.22;;;14.83;100.00
13314;BME280;6725;48.112;11.604;2023-05-31T00:23:38;95610.84;;;14.80;100.00
13314;BME280;6725;48.112;11.604;2023-05-31T00:26:04;95603.28;;;14.84;100.00
13314;BME280;6725;48.112;11.604;2023-05-31T00:28:30;95596.41;;;14.76;100.00
13314;BME280;6725;48.112;11.604;2023-05-31T00:30:55;95596.03;;;14.74;100.00
13314;BME280;6725;48.112;11.604;2023-05-31T00:33:20;95603.91;;;14.72;100.00
13314;BME280;6725;48.112;11.604;2023-05-31T00:35:46;95600.84;;;14.70;100.00
13314;BME280;6725;48.112;11.604;2023-05-31T00:38:11;95604.09;;;14.65;100.00
13314;BME280;6725;48.112;11.604;2023-05-31T00:40:38;95599.44;;;14.62;100.00
13314;BME280;6725;48.112;11.604;2023-05-31T00:43:04;95598.22;;;14.63;100.00
13314;BME280;6725;48.112;11.604;2023-05-31T00:45:29;95601.81;;;14.60;100.00
13314;BME280;6725;48.112;11.604;2023-05-31T00:47:55;95602.31;;;14.55;100.00
13314;BME280;6725;48.112;11.604;2023-05-31T00:50:21;95602.25;;;14.59;100.00
13314;BME280;6725;48.112;11.604;2023-05-31T00:52:50;95604.44;;;14.48;100.00
13314;BME280;6725;48.112;11.604;2023-05-31T00:55:16;95599.03;;;14.44;100.00
13314;BME280;6725;48.112;11.604;2023-05-31T00:57:42;95600.56;;;14.45;100.00
13314;BME280;6725;48.112;11.604;2023-05-31T01:00:08;95609.72;;;14.39;100.00
13314;BME280;6725;48.112;11.604;2023-05-31T01:02:34;95601.47;;;14.39;100.00
13314;BME280;6725;48.112;11.604;2023-05-31T01:05:04;95614.22;;;14.29;100.00
13314;BME280;6725;48.112;11.604;2023-05-31T01:07:30;95610.28;;;14.30;100.00
13314;BME280;6725;48.112;11.604;2023-05-31T01:09:55;95607.16;;;14.28;100.00
13314;BME280;6725;48.112;11.604;2023-05-31T01:15:26;95609.88;;;14.09;100.00
13314;BME280;6725;48.112;11.604;2023-05-31T01:18:31;95614.72;;;14.01;100.00
13314;BME280;6725;48.112;11.604;2023-05-31T01:21:01;95614.28;;;14.03;100.00
13314;BME280;6725;48.112;11.604;2023-05-31T01:23:59;95614.84;;;13.94;100.00
13314;BME280;6725;48.112;11.604;2023-05-31T01:26:43;95614.13;;;13.90;100.00
13314;BME280;6725;48.112;11.604;2023-05-31T01:29:14;95610.66;;;13.86;100.00
13314;BME280;6725;48.112;11.604;2023-05-31T01:31:44;95613.41;;;13.86;100.00
13314;BME280;6725;48.112;11.604;2023-05-31T01:34:11;95613.53;;;13.79;100.00
13314;BME280;6725;48.112;11.604;2023-05-31T01:36:37;95614.34;;;13.76;100.00
13314;BME280;6725;48.112;11.604;2023-05-31T01:39:03;95606.63;;;13.71;100.00
13314;BME280;6725;48.112;11.604;2023-05-31T01:41:32;95605.53;;;13.65;100.00
13314;BME280;6725;48.112;11.604;2023-05-31T01:43:59;95603.63;;;13.62;100.00
13314;BME280;6725;48.112;11.604;2023-05-31T01:46:25;95598.97;;;13.59;100.00
13314;BME280;6725;48.112;11.604;2023-05-31T01:48:52;95601.34;;;13.57;100.00
13314;BME280;6725;48.112;11.604;2023-05-31T01:51:18;95599.94;;;13.49;100.00
13314;BME280;6725;48.112;11.604;2023-05-31T01:53:45;95604.59;;;13.52;100.00
13314;BME280;6725;48.112;11.604;2023-05-31T01:56:11;95596.06;;;13.47;100.00
13314;BME280;6725;48.112;11.604;2023-05-31T01:58:39;95600.75;;;13.46;100.00
13314;BME280;6725;48.112;11.604;2023-05-31T02:01:09;95607.88;;;13.40;100.00
13314;BME280;6725;48.112;11.604;2023-05-31T02:03:36;95597.00;;;13.37;100.00
13314;BME280;6725;48.112;11.604;2023-05-31T02:06:01;95600.97;;;13.32;100.00
13314;BME280;6725;48.112;11.604;2023-05-31T02:08:27;95599.53;;;13.24;100.00
13314;BME280;6725;48.112;11.604;2023-05-31T02:10:53;95596.41;;;13.22;100.00
13314;BME280;6725;48.112;11.604;2023-05-31T02:13:19;95600.47;;;13.14;100.00
13314;BME280;6725;48.112;11.604;2023-05-31T02:15:45;95601.28;;;13.11;100.00
13314;BME280;6725;48.112;11.604;2023-05-31T02:18:11;95595.94;;;13.04;100.00
13314;BME280;6725;48.112;11.604;2023-05-31T02:20:37;95596.00;;;12.97;100.00
13314;BME280;6725;48.112;11.604;2023-05-31T02:23:03;95596.84;;;12.90;100.00
13314;BME280;6725;48.112;11.604;2023-05-31T02:25:28;95591.44;;;12.87;100.00
13314;BME280;6725;48.112;11.604;2023-05-31T02:27:54;95594.56;;;12.85;100.00
13314;BME280;6725;48.112;11.604;2023-05-31T02:30:20;95589.16;;;12.82;100.00
13314;BME280;6725;48.112;11.604;2023-05-31T02:32:45;95593.78;;;12.85;100.00
13314;BME280;6725;48.112;11.604;2023-05-31T02:35:11;95596.19;;;12.83;100.00
13314;BME280;6725;48.112;11.604;2023-05-31T02:37:38;95596.13;;;12.86;100.00
13314;BME280;6725;48.112;11.604;2023-05-31T02:40:04;95588.69;;;12.87;100.00
13314;BME280;6725;48.112;11.604;2023-05-31T02:42:42;95586.75;;;12.84;100.00
13314;BME280;6725;48.112;11.604;2023-05-31T02:45:09;95590.69;;;12.83;100.00
13314;BME280;6725;48.112;11.604;2023-05-31T02:47:36;95591.53;;;12.80;100.00
13314;BME280;6725;48.112;11.604;2023-05-31T02:50:02;95594.72;;;12.75;100.00
13314;BME280;6725;48.112;11.604;2023-05-31T02:52:27;95597.91;;;12.70;100.00
13314;BME280;6725;48.112;11.604;2023-05-31T02:54:53;95589.25;;;12.75;100.00
13314;BME280;6725;48.112;11.604;2023-05-31T02:57:18;95586.94;;;12.70;100.00
13314;BME280;6725;48.112;11.604;2023-05-31T02:59:45;95590.16;;;12.65;100.00
13314;BME280;6725;48.112;11.604;2023-05-31T03:02:10;95591.78;;;12.59;100.00
13314;BME280;6725;48.112;11.604;2023-05-31T03:04:36;95589.88;;;12.56;100.00
13314;BME280;6725;48.112;11.604;2023-05-31T03:07:01;95597.00;;;12.50;100.00
13314;BME280;6725;48.112;11.604;2023-05-31T03:09:28;95601.03;;;12.42;100.00
13314;BME280;6725;48.112;11.604;2023-05-31T03:11:53;95595.16;;;12.40;100.00
13314;BME280;6725;48.112;11.604;2023-05-31T03:14:18;95593.72;;;12.32;100.00
13314;BME280;6725;48.112;11.604;2023-05-31T03:16:45;95597.25;;;12.29;100.00
13314;BME280;6725;48.112;11.604;2023-05-31T03:19:10;95597.66;;;12.27;100.00
13314;BME280;6725;48.112;11.604;2023-05-31T03:21:38;95602.78;;;12.25;100.00
13314;BME280;6725;48.112;11.604;2023-05-31T03:24:03;95609.81;;;12.23;100.00
13314;BME280;6725;48.112;11.604;2023-05-31T03:26:29;95605.59;;;12.18;100.00
13314;BME280;6725;48.112;11.604;2023-05-31T03:28:54;95598.16;;;12.19;100.00
13314;BME280;6725;48.112;11.604;2023-05-31T03:31:19;95605.63;;;11.78;100.00
13314;BME280;6725;48.112;11.604;2023-05-31T03:33:45;95604.66;;;12.32;100.00
13314;BME280;6725;48.112;11.604;2023-05-31T03:36:10;95605.38;;;12.36;100.00
13314;BME280;6725;48.112;11.604;2023-05-31T03:38:36;95608.13;;;12.36;100.00
13314;BME280;6725;48.112;11.604;2023-05-31T03:41:01;95612.25;;;12.51;100.00
13314;BME280;6725;48.112;11.604;2023-05-31T03:43:27;95612.09;;;12.61;100.00
13314;BME280;6725;48.112;11.604;2023-05-31T03:45:55;95616.66;;;12.75;100.00
13314;BME280;6725;48.112;11.604;2023-05-31T03:48:21;95610.97;;;12.89;100.00
13314;BME280;6725;48.112;11.604;2023-05-31T03:50:46;95607.38;;;13.22;100.00
13314;BME280;6725;48.112;11.604;2023-05-31T03:53:11;95616.34;;;13.26;100.00
13314;BME280;6725;48.112;11.604;2023-05-31T03:55:37;95617.22;;;13.46;100.00
13314;BME280;6725;48.112;11.604;2023-05-31T03:58:02;95617.00;;;13.60;100.00
13314;BME280;6725;48.112;11.604;2023-05-31T04:00:28;95618.94;;;13.83;100.00
13314;BME280;6725;48.112;11.604;2023-05-31T04:02:54;95614.78;;;13.75;100.00
13314;BME280;6725;48.112;11.604;2023-05-31T04:05:19;95609.94;;;14.05;100.00
13314;BME280;6725;48.112;11.604;2023-05-31T04:07:45;95617.03;;;14.03;100.00
13314;BME280;6725;48.112;11.604;2023-05-31T04:10:10;95617.31;;;14.31;100.00
13314;BME280;6725;48.112;11.604;2023-05-31T04:12:36;95613.75;;;14.54;100.00
13314;BME280;6725;48.112;11.604;2023-05-31T04:15:01;95613.78;;;14.50;100.00
13314;BME280;6725;48.112;11.604;2023-05-31T04:17:26;95618.28;;;14.99;100.00
13314;BME280;6725;48.112;11.604;2023-05-31T04:19:52;95613.16;;;15.37;100.00
13314;BME280;6725;48.112;11.604;2023-05-31T04:22:17;95614.47;;;15.64;100.00
13314;BME280;6725;48.112;11.604;2023-05-31T04:24:43;95622.19;;;16.01;100.00
13314;BME280;6725;48.112;11.604;2023-05-31T04:27:08;95622.19;;;15.69;100.00
13314;BME280;6725;48.112;11.604;2023-05-31T04:29:33;95620.50;;;15.75;100.00
13314;BME280;6725;48.112;11.604;2023-05-31T04:31:59;95622.53;;;15.87;100.00
13314;BME280;6725;48.112;11.604;2023-05-31T04:34:24;95625.88;;;15.95;100.00
13314;BME280;6725;48.112;11.604;2023-05-31T04:36:52;95622.44;;;16.52;100.00
13314;BME280;6725;48.112;11.604;2023-05-31T04:39:18;95626.84;;;16.90;100.00
13314;BME280;6725;48.112;11.604;2023-05-31T04:41:45;95619.78;;;17.43;100.00
13314;BME280;6725;48.112;11.604;2023-05-31T04:44:11;95621.09;;;17.26;100.00
13314;BME280;6725;48.112;11.604;2023-05-31T04:46:36;95620.44;;;17.47;100.00
13314;BME280;6725;48.112;11.604;2023-05-31T04:49:02;95620.44;;;17.22;100.00
13314;BME280;6725;48.112;11.604;2023-05-31T04:51:28;95617.81;;;17.56;100.00
13314;BME280;6725;48.112;11.604;2023-05-31T04:53:54;95619.09;;;17.39;100.00
13314;BME280;6725;48.112;11.604;2023-05-31T04:56:19;95621.75;;;17.30;100.00
13314;BME280;6725;48.112;11.604;2023-05-31T04:58:46;95624.84;;;17.82;100.00
13314;BME280;6725;48.112;11.604;2023-05-31T05:01:12;95626.13;;;18.15;99.37
13314;BME280;6725;48.112;11.604;2023-05-31T05:03:40;95624.63;;;17.89;100.00
13314;BME280;6725;48.112;11.604;2023-05-31T05:06:16;95622.53;;;18.27;96.90
13314;BME280;6725;48.112;11.604;2023-05-31T05:08:42;95627.25;;;18.05;97.82
13314;BME280;6725;48.112;11.604;2023-05-31T05:11:08;95630.06;;;17.55;99.81
13314;BME280;6725;48.112;11.604;2023-05-31T05:13:34;95633.03;;;18.44;94.90
13314;BME280;6725;48.112;11.604;2023-05-31T05:16:00;95633.56;;;18.05;98.15
13314;BME280;6725;48.112;11.604;2023-05-31T05:18:27;95638.34;;;18.94;91.67
13314;BME280;6725;48.112;11.604;2023-05-31T05:20:52;95644.25;;;18.16;92.55
13314;BME280;6725;48.112;11.604;2023-05-31T05:23:18;95634.81;;;18.26;93.71
13314;BME280;6725;48.112;11.604;2023-05-31T05:25:43;95635.22;;;18.49;92.39
13314;BME280;6725;48.112;11.604;2023-05-31T05:28:08;95635.41;;;18.21;96.20
13314;BME280;6725;48.112;11.604;2023-05-31T05:30:34;95633.84;;;19.31;93.00
13314;BME280;6725;48.112;11.604;2023-05-31T05:32:59;95635.03;;;19.30;88.19
13314;BME280;6725;48.112;11.604;2023-05-31T05:35:24;95633.53;;;19.69;85.84
13314;BME280;6725;48.112;11.604;2023-05-31T05:37:50;95642.50;;;19.73;84.74
13314;BME280;6725;48.112;11.604;2023-05-31T05:40:15;95644.75;;;19.56;84.08
13314;BME280;6725;48.112;11.604;2023-05-31T05:42:41;95636.47;;;19.74;88.54
13314;BME280;6725;48.112;11.604;2023-05-31T05:45:07;95630.69;;;20.66;78.18
13314;BME280;6725;48.112;11.604;2023-05-31T05:47:34;95637.25;;;21.31;74.61
13314;BME280;6725;48.112;11.604;2023-05-31T05:49:59;95640.09;;;20.86;73.53
13314;BME280;6725;48.112;11.604;2023-05-31T05:52:25;95636.72;;;20.73;78.19
13314;BME280;6725;48.112;11.604;2023-05-31T05:54:51;95636.38;;;20.44;75.83
13314;BME280;6725;48.112;11.604;2023-05-31T05:57:16;95640.66;;;20.36;75.26
13314;BME280;6725;48.112;11.604;2023-05-31T05:59:42;95635.31;;;20.78;74.60
13314;BME280;6725;48.112;11.604;2023-05-31T06:02:07;95641.94;;;20.62;76.23
13314;BME280;6725;48.112;11.604;2023-05-31T06:04:32;95642.53;;;20.30;77.74
13314;BME280;6725;48.112;11.604;2023-05-31T06:06:58;95633.75;;;20.41;78.10
13314;BME280;6725;48.112;11.604;2023-05-31T06:09:23;95631.78;;;20.95;76.82
13314;BME280;6725;48.112;11.604;2023-05-31T06:11:49;95640.69;;;20.72;75.06
13314;BME280;6725;48.112;11.604;2023-05-31T06:14:14;95639.94;;;21.76;71.68
13314;BME280;6725;48.112;11.604;2023-05-31T06:16:40;95647.81;;;20.55;75.34
13314;BME280;6725;48.112;11.604;2023-05-31T06:19:05;95657.34;;;20.72;76.56
13314;BME280;6725;48.112;11.604;2023-05-31T06:21:30;95648.66;;;20.16;79.15
13314;BME280;6725;48.112;11.604;2023-05-31T06:23:57;95642.22;;;21.27;76.89
13314;BME280;6725;48.112;11.604;2023-05-31T06:26:22;95633.50;;;21.61;71.53
13314;BME280;6725;48.112;11.604;2023-05-31T06:28:47;95657.25;;;21.12;74.48
13314;BME280;6725;48.112;11.604;2023-05-31T06:31:13;95650.47;;;21.72;72.49
13314;BME280;6725;48.112;11.604;2023-05-31T06:33:38;95654.91;;;21.28;74.48
13314;BME280;6725;48.112;11.604;2023-05-31T06:36:04;95652.31;;;20.98;76.89
13314;BME280;6725;48.112;11.604;2023-05-31T06:38:29;95650.34;;;21.99;72.22
13314;BME280;6725;48.112;11.604;2023-05-31T06:40:54;95648.16;;;22.98;66.38
13314;BME280;6725;48.112;11.604;2023-05-31T06:43:20;95651.91;;;22.57;66.00
13314;BME280;6725;48.112;11.604;2023-05-31T06:45:45;95656.38;;;21.47;71.17
13314;BME280;6725;48.112;11.604;2023-05-31T06:48:11;95646.22;;;22.51;67.56
13314;BME280;6725;48.112;11.604;2023-05-31T06:50:36;95653.66;;;22.69;66.82
13314;BME280;6725;48.112;11.604;2023-05-31T06:53:02;95648.66;;;22.25;69.41
13314;BME280;6725;48.112;11.604;2023-05-31T06:55:27;95645.94;;;22.64;68.51
13314;BME280;6725;48.112;11.604;2023-05-31T06:57:52;95654.16;;;23.20;65.75
13314;BME280;6725;48.112;11.604;2023-05-31T07:00:18;95640.69;;;23.91;63.76
13314;BME280;6725;48.112;11.604;2023-05-31T07:02:44;95640.81;;;24.31;62.45
13314;BME280;6725;48.112;11.604;2023-05-31T07:05:10;95625.81;;;25.08;58.22
13314;BME280;6725;48.112;11.604;2023-05-31T07:07:35;95633.63;;;25.50;56.31
13314;BME280;6725;48.112;11.604;2023-05-31T07:10:01;95630.91;;;24.30;59.16
13314;BME280;6725;48.112;11.604;2023-05-31T07:12:27;95632.69;;;24.87;58.70
13314;BME280;6725;48.112;11.604;2023-05-31T07:14:52;95634.72;;;25.58;54.69
13314;BME280;6725;48.112;11.604;2023-05-31T07:17:17;95636.88;;;25.43;54.20
13314;BME280;6725;48.112;11.604;2023-05-31T07:19:47;95646.84;;;25.04;55.26
13314;BME280;6725;48.112;11.604;2023-05-31T07:22:16;95638.41;;;24.04;58.60
13314;BME280;6725;48.112;11.604;2023-05-31T07:24:42;95647.34;;;25.74;53.95
13314;BME280;6725;48.112;11.604;2023-05-31T07:27:08;95635.59;;;25.44;55.09
13314;BME280;6725;48.112;11.604;2023-05-31T07:29:34;95635.06;;;25.20;54.53
13314;BME280;6725;48.112;11.604;2023-05-31T07:32:00;95636.19;;;24.82;54.94
13314;BME280;6725;48.112;11.604;2023-05-31T07:34:25;95632.09;;;25.49;53.89
13314;BME280;6725;48.112;11.604;2023-05-31T07:36:51;95634.50;;;24.70;57.33
13314;BME280;6725;48.112;11.604;2023-05-31T07:39:16;95633.44;;;24.48;57.44
13314;BME280;6725;48.112;11.604;2023-05-31T07:41:42;95638.50;;;24.84;56.51
13314;BME280;6725;48.112;11.604;2023-05-31T07:44:08;95631.63;;;24.65;54.73
13314;BME280;6725;48.112;11.604;2023-05-31T07:46:34;95637.06;;;24.94;55.52
13314;BME280;6725;48.112;11.604;2023-05-31T07:49:01;95629.69;;;24.71;54.89
13314;BME280;6725;48.112;11.604;2023-05-31T07:51:28;95629.53;;;24.40;56.07
13314;BME280;6725;48.112;11.604;2023-05-31T07:53:53;95621.44;;;25.53;52.48
13314;BME280;6725;48.112;11.604;2023-05-31T07:56:19;95634.22;;;25.91;48.54
13314;BME280;6725;48.112;11.604;2023-05-31T07:58:45;95631.28;;;25.74;51.01
13314;BME280;6725;48.112;11.604;2023-05-31T08:01:10;95620.59;;;24.96;53.61
13314;BME280;6725;48.112;11.604;2023-05-31T08:03:36;95612.44;;;26.42;50.69
13314;BME280;6725;48.112;11.604;2023-05-31T08:06:01;95626.25;;;26.51;48.29
13314;BME280;6725;48.112;11.604;2023-05-31T08:08:26;95612.47;;;26.48;49.05
13314;BME280;6725;48.112;11.604;2023-05-31T08:10:52;95619.31;;;25.17;50.74
13314;BME280;6725;48.112;11.604;2023-05-31T08:13:18;95622.66;;;25.47;51.02
13314;BME280;6725;48.112;11.604;2023-05-31T08:15:43;95611.97;;;25.76;51.65
13314;BME280;6725;48.112;11.604;2023-05-31T08:18:08;95618.31;;;26.02;50.33
13314;BME280;6725;48.112;11.604;2023-05-31T08:20:34;95609.09;;;25.96;49.76
13314;BME280;6725;48.112;11.604;2023-05-31T08:22:59;95619.06;;;25.20;52.53
13314;BME280;6725;48.112;11.604;2023-05-31T08:25:25;95607.28;;;25.36;49.76
13314;BME280;6725;48.112;11.604;2023-05-31T08:27:50;95620.53;;;25.16;52.87
13314;BME280;6725;48.112;11.604;2023-05-31T08:30:16;95604.94;;;25.86;49.95
13314;BME280;6725;48.112;11.604;2023-05-31T08:32:41;95610.47;;;25.75;51.02
13314;BME280;6725;48.112;11.604;2023-05-31T08:35:07;95599.44;;;26.39;49.72
13314;BME280;6725;48.112;11.604;2023-05-31T08:37:35;95604.94;;;25.86;45.97
13314;BME280;6725;48.112;11.604;2023-05-31T08:40:01;95607.38;;;25.73;47.85
13314;BME280;6725;48.112;11.604;2023-05-31T08:42:40;95604.81;;;26.48;46.61
13314;BME280;6725;48.112;11.604;2023-05-31T08:45:08;95608.06;;;25.63;46.85
13314;BME280;6725;48.112;11.604;2023-05-31T08:47:43;95607.16;;;24.20;53.30
13314;BME280;6725;48.112;11.604;2023-05-31T08:50:10;95607.63;;;25.18;50.03
13314;BME280;6725;48.112;11.604;2023-05-31T08:52:35;95599.38;;;26.28;44.70
13314;BME280;6725;48.112;11.604;2023-05-31T08:55:02;95603.78;;;25.98;46.45
13314;BME280;6725;48.112;11.604;2023-05-31T08:57:29;95585.97;;;25.39;48.13
13314;BME280;6725;48.112;11.604;2023-05-31T08:59:56;95591.75;;;24.84;48.35
13314;BME280;6725;48.112;11.604;2023-05-31T09:02:22;95602.66;;;25.59;47.29
13314;BME280;6725;48.112;11.604;2023-05-31T09:04:49;95597.31;;;25.30;47.12
13314;BME280;6725;48.112;11.604;2023-05-31T09:07:15;95624.72;;;24.60;49.14
13314;BME280;6725;48.112;11.604;2023-05-31T09:09:41;95587.44;;;26.33;46.53
13314;BME280;6725;48.112;11.604;2023-05-31T09:12:06;95591.78;;;24.90;47.56
13314;BME280;6725;48.112;11.604;2023-05-31T09:14:32;95612.63;;;24.89;47.51
13314;BME280;6725;48.112;11.604;2023-05-31T09:16:59;95597.75;;;24.97;46.78
13314;BME280;6725;48.112;11.604;2023-05-31T09:19:25;95607.03;;;24.89;48.26
13314;BME280;6725;48.112;11.604;2023-05-31T09:21:51;95602.44;;;24.86;46.34
13314;BME280;6725;48.112;11.604;2023-05-31T09:24:17;95607.03;;;24.49;47.25
13314;BME280;6725;48.112;11.604;2023-05-31T09:26:51;95597.41;;;24.30;46.75
13314;BME280;6725;48.112;11.604;2023-05-31T09:29:18;95618.69;;;23.93;47.18
13314;BME280;6725;48.112;11.604;2023-05-31T09:31:45;95593.38;;;23.96;49.59
13314;BME280;6725;48.112;11.604;2023-05-31T09:34:28;95617.00;;;25.41;45.66
13314;BME280;6725;48.112;11.604;2023-05-31T09:37:01;95595.75;;;24.58;46.33
13314;BME280;6725;48.112;11.604;2023-05-31T09:39:27;95600.03;;;24.99;44.35
13314;BME280;6725;48.112;11.604;2023-05-31T09:41:53;95593.78;;;24.64;45.67
13314;BME280;6725;48.112;11.604;2023-05-31T09:44:25;95623.38;;;24.76;45.58
13314;BME280;6725;48.112;11.604;2023-05-31T09:46:54;95594.78;;;24.26;47.11
13314;BME280;6725;48.112;11.604;2023-05-31T09:49:20;95592.56;;;25.36;46.01
13314;BME280;6725;48.112;11.604;2023-05-31T09:51:52;95593.91;;;26.08;43.83
13314;BME280;6725;48.112;11.604;2023-05-31T09:54:18;95589.31;;;25.43;44.17
13314;BME280;6725;48.112;11.604;2023-05-31T09:56:48;95610.72;;;25.46;44.04
13314;BME280;6725;48.112;11.604;2023-05-31T09:59:14;95577.34;;;26.52;42.28
13314;BME280;6725;48.112;11.604;2023-05-31T10:01:40;95576.88;;;26.59;40.50
13314;BME280;6725;48.112;11.604;2023-05-31T10:04:06;95620.28;;;25.96;39.32
13314;BME280;6725;48.112;11.604;2023-05-31T10:06:32;95595.16;;;25.19;42.04
13314;BME280;6725;48.112;11.604;2023-05-31T10:09:05;95587.16;;;25.58;40.82
13314;BME280;6725;48.112;11.604;2023-05-31T10:11:41;95587.81;;;25.48;42.72
13314;BME280;6725;48.112;11.604;2023-05-31T10:14:10;95587.22;;;25.38;43.13
13314;BME280;6725;48.112;11.604;2023-05-31T10:16:44;95591.78;;;25.10;41.84
13314;BME280;6725;48.112;11.604;2023-05-31T10:19:12;95590.91;;;25.81;40.98
13314;BME280;6725;48.112;11.604;2023-05-31T10:21:42;95588.78;;;25.39;40.45
13314;BME280;6725;48.112;11.604;2023-05-31T10:24:13;95581.59;;;25.64;40.57
13314;BME280;6725;48.112;11.604;2023-05-31T10:29:29;95580.28;;;25.59;39.82
13314;BME280;6725;48.112;11.604;2023-05-31T10:32:08;95571.41;;;25.29;41.18
13314;BME280;6725;48.112;11.604;2023-05-31T10:34:35;95570.78;;;25.82;41.16
13314;BME280;6725;48.112;11.604;2023-05-31T10:37:01;95572.75;;;25.39;40.19
13314;BME280;6725;48.112;11.604;2023-05-31T10:39:41;95560.91;;;26.23;39.36
13314;BME280;6725;48.112;11.604;2023-05-31T10:45:27;95565.84;;;27.14;39.20
13314;BME280;6725;48.112;11.604;2023-05-31T10:47:37;95567.16;;;26.49;37.87
13314;BME280;6725;48.112;11.604;2023-05-31T10:50:05;95574.81;;;25.19;39.56
13314;BME280;6725;48.112;11.604;2023-05-31T10:52:31;95564.03;;;24.41;42.53
13314;BME280;6725;48.112;11.604;2023-05-31T10:55:21;95580.53;;;25.30;41.91
13314;BME280;6725;48.112;11.604;2023-05-31T10:57:54;95571.44;;;24.44;42.81
13314;BME280;6725;48.112;11.604;2023-05-31T11:00:22;95581.69;;;25.18;41.70
13314;BME280;6725;48.112;11.604;2023-05-31T11:02:49;95563.81;;;25.35;40.44
13314;BME280;6725;48.112;11.604;2023-05-31T11:05:19;95567.91;;;24.89;40.81
13314;BME280;6725;48.112;11.604;2023-05-31T11:07:46;95545.22;;;25.07;41.91
13314;BME280;6725;48.112;11.604;2023-05-31T11:10:29;95554.66;;;25.35;42.19
13314;BME280;6725;48.112;11.604;2023-05-31T11:13:01;95549.56;;;25.65;41.95
13314;BME280;6725;48.112;11.604;2023-05-31T11:15:40;95546.53;;;26.52;39.36
13314;BME280;6725;48.112;11.604;2023-05-31T11:18:07;95546.25;;;25.66;39.73
13314;BME280;6725;48.112;11.604;2023-05-31T11:20:35;95532.38;;;26.19;38.14
13314;BME280;6725;48.112;11.604;2023-05-31T11:23:23;95551.31;;;25.62;39.96
13314;BME280;6725;48.112;11.604;2023-05-31T11:26:08;95545.66;;;25.00;42.15
13314;BME280;6725;48.112;11.604;2023-05-31T11:28:55;95542.00;;;25.76;41.57
13314;BME280;6725;48.112;11.604;2023-05-31T11:34:26;95530.38;;;25.52;42.92
13314;BME280;6725;48.112;11.604;2023-05-31T11:36:56;95530.00;;;25.70;42.82
13314;BME280;6725;48.112;11.604;2023-05-31T11:39:23;95533.91;;;25.47;42.51
13314;BME280;6725;48.112;11.604;2023-05-31T11:41:48;95538.50;;;24.93;43.38
13314;BME280;6725;48.112;11.604;2023-05-31T11:44:17;95534.91;;;24.93;43.54
13314;BME280;6725;48.112;11.604;2023-05-31T11:46:46;95536.66;;;24.65;44.46
13314;BME280;6725;48.112;11.604;2023-05-31T11:49:13;95548.81;;;24.62;45.92
13314;BME280;6725;48.112;11.604;2023-05-31T11:51:43;95533.16;;;24.50;45.43
13314;BME280;6725;48.112;11.604;2023-05-31T11:54:09;95525.63;;;24.36;46.54
13314;BME280;6725;48.112;11.604;2023-05-31T11:56:37;95518.09;;;24.22;47.05
13314;BME280;6725;48.112;11.604;2023-05-31T11:59:02;95531.97;;;23.96;48.71
13314;BME280;6725;48.112;11.604;2023-05-31T12:01:28;95530.53;;;23.52;49.07
13314;BME280;6725;48.112;11.604;2023-05-31T12:04:00;95529.94;;;23.62;51.48
13314;BME280;6725;48.112;11.604;2023-05-31T12:06:26;95517.28;;;23.47;54.31
13314;BME280;6725;48.112;11.604;2023-05-31T12:08:52;95525.38;;;23.16;54.44
13314;BME280;6725;48.112;11.604;2023-05-31T12:11:17;95517.41;;;23.38;54.36
13314;BME280;6725;48.112;11.604;2023-05-31T12:13:43;95520.19;;;22.80;55.14
13314;BME280;6725;48.112;11.604;2023-05-31T12:16:08;95523.03;;;22.71;58.46
13314;BME280;6725;48.112;11.604;2023-05-31T12:18:34;95506.94;;;22.89;59.01
13314;BME280;6725;48.112;11.604;2023-05-31T12:21:05;95515.28;;;23.04;58.20
13314;BME280;6725;48.112;11.604;2023-05-31T12:23:31;95516.31;;;22.63;59.59
13314;BME280;6725;48.112;11.604;2023-05-31T12:25:57;95492.13;;;22.69;59.49
13314;BME280;6725;48.112;11.604;2023-05-31T12:28:23;95509.03;;;22.80;58.97
13314;BME280;6725;48.112;11.604;2023-05-31T12:30:49;95496.03;;;23.20;58.76
13314;BME280;6725;48.112;11.604;2023-05-31T12:33:16;95513.47;;;23.30;55.79
13314;BME280;6725;48.112;11.604;2023-05-31T12:35:44;95509.44;;;23.02;52.44
13314;BME280;6725;48.112;11.604;2023-05-31T12:38:10;95501.94;;;22.79;52.82
13314;BME280;6725;48.112;11.604;2023-05-31T12:40:40;95496.75;;;23.01;53.63
13314;BME280;6725;48.112;11.604;2023-05-31T12:43:06;95500.53;;;23.47;54.66
13314;BME280;6725;48.112;11.604;2023-05-31T12:45:32;95488.97;;;23.05;53.21
13314;BME280;6725;48.112;11.604;2023-05-31T12:47:58;95497.09;;;23.52;53.40
13314;BME280;6725;48.112;11.604;2023-05-31T12:50:27;95499.72;;;23.41;53.09
13314;BME280;6725;48.112;11.604;2023-05-31T12:52:56;95489.22;;;23.07;53.02
13314;BME280;6725;48.112;11.604;2023-05-31T12:55:22;95496.66;;;22.95;51.70
13314;BME280;6725;48.112;11.604;2023-05-31T12:57:48;95486.25;;;22.96;52.07
13314;BME280;6725;48.112;11.604;2023-05-31T13:00:13;95489.63;;;23.00;51.16
13314;BME280;6725;48.112;11.604;2023-05-31T13:02:39;95490.88;;;23.28;50.95
13314;BME280;6725;48.112;11.604;2023-05-31T13:05:05;95494.44;;;23.28;48.52
13314;BME280;6725;48.112;11.604;2023-05-31T13:07:32;95490.41;;;23.29;50.18